sensor_id;sensor_type;location;lat;lon;timestamp;pressure;altitude;pressure_sealevel;temperature;humidity
41706;BME280;27385;51.096;17.190;2023-05-19T00:01:53;101333.19;;;10.70;75.02
41706;BME280;27385;51.096;17.190;2023-05-19T00:04:25;101331.56;;;10.70;75.02
41706;BME280;27385;51.096;17.190;2023-05-19T00:06:56;101332.10;;;10.68;75.07
41706;BME280;27385;51.096;17.190;2023-05-19T00:09:29;101330.47;;;10.66;74.92
41706;BME280;27385;51.096;17.190;2023-05-19T00:12:01;101329.62;;;10.66;75.01
41706;BME280;27385;51.096;17.190;2023-05-19T00:14:32;101331.63;;;10.63;75.04
41706;BME280;27385;51.096;17.190;2023-05-19T00:17:04;101330.02;;;10.63;75.22
41706;BME280;27385;51.096;17.190;2023-05-19T00:19:36;101328.39;;;10.62;75.17
41706;BME280;27385;51.096;17.190;2023-05-19T00:22:07;101328.16;;;10.60;75.09
41706;BME280;27385;51.096;17.190;2023-05-19T00:24:38;101329.41;;;10.58;75.29
41706;BME280;27385;51.096;17.190;2023-05-19T00:27:09;101331.16;;;10.56;75.39
41706;BME280;27385;51.096;17.190;2023-05-19T00:29:40;101329.30;;;10.52;75.43
41706;BME280;27385;51.096;17.190;2023-05-19T00:32:10;101330.23;;;10.48;75.66
41706;BME280;27385;51.096;17.190;2023-05-19T00:34:41;101327.39;;;10.43;75.65
41706;BME280;27385;51.096;17.190;2023-05-19T00:37:12;101324.81;;;10.39;75.76
41706;BME280;27385;51.096;17.190;2023-05-19T00:39:43;101327.30;;;10.37;75.77
41706;BME280;27385;51.096;17.190;2023-05-19T00:42:14;101323.38;;;10.32;75.82
41706;BME280;27385;51.096;17.190;2023-05-19T00:44:45;101324.20;;;10.29;76.05
41706;BME280;27385;51.096;17.190;2023-05-19T00:47:16;101326.90;;;10.27;76.11
41706;BME280;27385;51.096;17.190;2023-05-19T00:49:47;101319.63;;;10.25;76.14
41706;BME280;27385;51.096;17.190;2023-05-19T00:52:18;101323.67;;;10.24;76.20
41706;BME280;27385;51.096;17.190;2023-05-19T00:54:49;101323.65;;;10.22;76.42
41706;BME280;27385;51.096;17.190;2023-05-19T00:57:20;101322.58;;;10.19;76.47
41706;BME280;27385;51.096;17.190;2023-05-19T00:59:51;101324.60;;;10.18;76.57
41706;BME280;27385;51.096;17.190;2023-05-19T01:02:22;101329.70;;;10.15;76.61
41706;BME280;27385;51.096;17.190;2023-05-19T01:04:53;101325.84;;;10.14;76.82
41706;BME280;27385;51.096;17.190;2023-05-19T01:07:26;101326.64;;;10.11;76.86
41706;BME280;27385;51.096;17.190;2023-05-19T01:09:57;101328.14;;;10.09;77.17
41706;BME280;27385;51.096;17.190;2023-05-19T01:12:29;101324.75;;;10.05;77.27
41706;BME280;27385;51.096;17.190;2023-05-19T01:15:00;101322.33;;;10.01;77.43
41706;BME280;27385;51.096;17.190;2023-05-19T01:17:37;101325.14;;;9.99;77.43
41706;BME280;27385;51.096;17.190;2023-05-19T01:20:15;101325.91;;;9.97;77.76
41706;BME280;27385;51.096;17.190;2023-05-19T01:23:19;101327.79;;;9.96;77.60
41706;BME280;27385;51.096;17.190;2023-05-19T01:29:10;101331.67;;;9.96;77.81
41706;BME280;27385;51.096;17.190;2023-05-19T01:31:46;101331.80;;;9.95;78.08
41706;BME280;27385;51.096;17.190;2023-05-19T01:34:19;101332.20;;;9.95;77.84
41706;BME280;27385;51.096;17.190;2023-05-19T01:36:51;101329.77;;;9.96;77.95
41706;BME280;27385;51.096;17.190;2023-05-19T01:39:24;101331.67;;;9.96;77.86
41706;BME280;27385;51.096;17.190;2023-05-19T01:41:56;101331.53;;;9.95;78.13
41706;BME280;27385;51.096;17.190;2023-05-19T01:44:28;101332.11;;;9.92;78.28
41706;BME280;27385;51.096;17.190;2023-05-19T01:47:01;101329.60;;;9.89;78.36
41706;BME280;27385;51.096;17.190;2023-05-19T01:49:32;101332.91;;;9.88;78.31
41706;BME280;27385;51.096;17.190;2023-05-19T01:52:03;101332.71;;;9.87;78.78
41706;BME280;27385;51.096;17.190;2023-05-19T01:54:34;101331.51;;;9.84;78.52
41706;BME280;27385;51.096;17.190;2023-05-19T01:57:16;101331.52;;;9.85;78.76
41706;BME280;27385;51.096;17.190;2023-05-19T01:59:58;101328.75;;;9.84;78.59
41706;BME280;27385;51.096;17.190;2023-05-19T02:02:37;101328.79;;;9.85;78.62
41706;BME280;27385;51.096;17.190;2023-05-19T02:05:17;101328.17;;;9.84;78.72
41706;BME280;27385;51.096;17.190;2023-05-19T02:08:04;101323.61;;;9.79;78.77
41706;BME280;27385;51.096;17.190;2023-05-19T02:10:39;101321.85;;;9.77;78.99
41706;BME280;27385;51.096;17.190;2023-05-19T02:13:13;101322.67;;;9.76;78.89
41706;BME280;27385;51.096;17.190;2023-05-19T02:15:46;101319.63;;;9.77;78.98
41706;BME280;27385;51.096;17.190;2023-05-19T02:18:18;101316.21;;;9.77;79.06
41706;BME280;27385;51.096;17.190;2023-05-19T02:20:49;101317.55;;;9.74;79.30
41706;BME280;27385;51.096;17.190;2023-05-19T02:23:20;101315.52;;;9.73;79.17
41706;BME280;27385;51.096;17.190;2023-05-19T02:25:51;101318.84;;;9.72;79.35
41706;BME280;27385;51.096;17.190;2023-05-19T02:28:22;101313.85;;;9.68;79.40
41706;BME280;27385;51.096;17.190;2023-05-19T02:30:56;101313.27;;;9.65;79.58
41706;BME280;27385;51.096;17.190;2023-05-19T02:33:27;101314.02;;;9.61;79.79
41706;BME280;27385;51.096;17.190;2023-05-19T02:35:58;101309.41;;;9.55;79.98
41706;BME280;27385;51.096;17.190;2023-05-19T02:38:29;101312.98;;;9.51;80.01
41706;BME280;27385;51.096;17.190;2023-05-19T02:41:01;101306.34;;;9.49;80.20
41706;BME280;27385;51.096;17.190;2023-05-19T02:43:31;101304.38;;;9.48;80.32
41706;BME280;27385;51.096;17.190;2023-05-19T02:46:02;101303.28;;;9.50;80.52
41706;BME280;27385;51.096;17.190;2023-05-19T02:48:33;101304.30;;;9.50;80.49
41706;BME280;27385;51.096;17.190;2023-05-19T02:51:05;101301.72;;;9.52;80.67
41706;BME280;27385;51.096;17.190;2023-05-19T02:53:36;101298.71;;;9.51;80.79
41706;BME280;27385;51.096;17.190;2023-05-19T02:56:07;101302.92;;;9.51;80.75
41706;BME280;27385;51.096;17.190;2023-05-19T02:58:38;101303.23;;;9.50;80.95
41706;BME280;27385;51.096;17.190;2023-05-19T03:01:11;101304.10;;;9.47;81.00
41706;BME280;27385;51.096;17.190;2023-05-19T03:03:42;101305.83;;;9.45;81.22
41706;BME280;27385;51.096;17.190;2023-05-19T03:06:13;101303.62;;;9.47;81.30
41706;BME280;27385;51.096;17.190;2023-05-19T03:08:46;101304.20;;;9.46;81.59
41706;BME280;27385;51.096;17.190;2023-05-19T03:11:17;101304.06;;;9.43;81.72
41706;BME280;27385;51.096;17.190;2023-05-19T03:13:48;101298.67;;;9.42;81.59
41706;BME280;27385;51.096;17.190;2023-05-19T03:16:18;101302.65;;;9.45;81.89
41706;BME280;27385;51.096;17.190;2023-05-19T03:18:50;101303.15;;;9.44;81.82
41706;BME280;27385;51.096;17.190;2023-05-19T03:21:21;101300.77;;;9.47;81.96
41706;BME280;27385;51.096;17.190;2023-05-19T03:23:52;101297.69;;;9.48;82.16
41706;BME280;27385;51.096;17.190;2023-05-19T03:26:23;101299.08;;;9.50;82.23
41706;BME280;27385;51.096;17.190;2023-05-19T03:28:54;101300.63;;;9.51;82.46
41706;BME280;27385;51.096;17.190;2023-05-19T03:31:25;101293.45;;;9.51;82.53
41706;BME280;27385;51.096;17.190;2023-05-19T03:33:56;101293.43;;;9.52;82.66
41706;BME280;27385;51.096;17.190;2023-05-19T03:36:27;101295.23;;;9.53;82.68
41706;BME280;27385;51.096;17.190;2023-05-19T03:39:00;101299.45;;;9.53;83.01
41706;BME280;27385;51.096;17.190;2023-05-19T03:41:31;101300.84;;;9.54;82.99
41706;BME280;27385;51.096;17.190;2023-05-19T03:44:01;101306.12;;;9.56;82.89
41706;BME280;27385;51.096;17.190;2023-05-19T03:46:32;101307.86;;;9.59;82.86
41706;BME280;27385;51.096;17.190;2023-05-19T03:49:03;101310.73;;;9.60;83.07
41706;BME280;27385;51.096;17.190;2023-05-19T03:51:34;101312.73;;;9.58;83.15
41706;BME280;27385;51.096;17.190;2023-05-19T03:54:05;101311.65;;;9.60;83.36
41706;BME280;27385;51.096;17.190;2023-05-19T03:56:40;101314.00;;;9.62;83.68
41706;BME280;27385;51.096;17.190;2023-05-19T03:59:11;101309.79;;;9.61;83.49
41706;BME280;27385;51.096;17.190;2023-05-19T04:01:42;101311.34;;;9.63;83.84
41706;BME280;27385;51.096;17.190;2023-05-19T04:04:13;101313.11;;;9.64;83.83
41706;BME280;27385;51.096;17.190;2023-05-19T04:06:44;101312.94;;;9.67;83.99
41706;BME280;27385;51.096;17.190;2023-05-19T04:09:15;101313.52;;;9.69;83.94
41706;BME280;27385;51.096;17.190;2023-05-19T04:11:49;101316.57;;;9.70;84.05
41706;BME280;27385;51.096;17.190;2023-05-19T04:14:19;101314.00;;;9.73;84.12
41706;BME280;27385;51.096;17.190;2023-05-19T04:16:50;101314.56;;;9.76;84.16
41706;BME280;27385;51.096;17.190;2023-05-19T04:19:22;101316.96;;;9.78;84.14
41706;BME280;27385;51.096;17.190;2023-05-19T04:21:53;101318.81;;;9.80;84.18
41706;BME280;27385;51.096;17.190;2023-05-19T04:24:23;101322.60;;;9.83;84.00
41706;BME280;27385;51.096;17.190;2023-05-19T04:26:54;101328.91;;;9.88;84.22
41706;BME280;27385;51.096;17.190;2023-05-19T04:29:25;101319.29;;;9.90;84.02
41706;BME280;27385;51.096;17.190;2023-05-19T04:31:57;101321.56;;;9.93;84.02
41706;BME280;27385;51.096;17.190;2023-05-19T04:34:29;101321.55;;;9.98;83.94
41706;BME280;27385;51.096;17.190;2023-05-19T04:36:59;101317.23;;;10.01;84.08
41706;BME280;27385;51.096;17.190;2023-05-19T04:39:30;101311.36;;;10.03;83.75
41706;BME280;27385;51.096;17.190;2023-05-19T04:42:01;101308.77;;;10.06;83.87
41706;BME280;27385;51.096;17.190;2023-05-19T04:44:32;101305.30;;;10.08;83.65
41706;BME280;27385;51.096;17.190;2023-05-19T04:47:02;101306.73;;;10.11;83.64
41706;BME280;27385;51.096;17.190;2023-05-19T04:49:34;101304.65;;;10.16;83.72
41706;BME280;27385;51.096;17.190;2023-05-19T04:52:18;101302.65;;;10.21;83.95
41706;BME280;27385;51.096;17.190;2023-05-19T04:54:50;101303.70;;;10.23;83.73
41706;BME280;27385;51.096;17.190;2023-05-19T04:57:21;101309.05;;;10.25;83.74
41706;BME280;27385;51.096;17.190;2023-05-19T04:59:51;101310.71;;;10.27;83.57
41706;BME280;27385;51.096;17.190;2023-05-19T05:02:28;101316.34;;;10.31;83.54
41706;BME280;27385;51.096;17.190;2023-05-19T05:05:00;101319.56;;;10.32;83.24
41706;BME280;27385;51.096;17.190;2023-05-19T05:07:31;101318.32;;;10.31;83.11
41706;BME280;27385;51.096;17.190;2023-05-19T05:10:02;101320.73;;;10.33;83.19
41706;BME280;27385;51.096;17.190;2023-05-19T05:12:34;101315.79;;;10.35;83.22
41706;BME280;27385;51.096;17.190;2023-05-19T05:15:07;101318.50;;;10.37;83.22
41706;BME280;27385;51.096;17.190;2023-05-19T05:17:39;101320.35;;;10.39;83.07
41706;BME280;27385;51.096;17.190;2023-05-19T05:20:12;101320.60;;;10.41;83.09
41706;BME280;27385;51.096;17.190;2023-05-19T05:22:44;101317.61;;;10.42;83.05
41706;BME280;27385;51.096;17.190;2023-05-19T05:25:17;101316.60;;;10.43;83.12
41706;BME280;27385;51.096;17.190;2023-05-19T05:27:48;101319.86;;;10.46;83.30
41706;BME280;27385;51.096;17.190;2023-05-19T05:30:19;101325.12;;;10.48;83.00
41706;BME280;27385;51.096;17.190;2023-05-19T05:32:50;101330.02;;;10.50;83.03
41706;BME280;27385;51.096;17.190;2023-05-19T05:35:21;101326.23;;;10.53;83.31
41706;BME280;27385;51.096;17.190;2023-05-19T05:37:53;101325.83;;;10.56;82.98
41706;BME280;27385;51.096;17.190;2023-05-19T05:40:24;101329.23;;;10.58;83.12
41706;BME280;27385;51.096;17.190;2023-05-19T05:42:55;101328.20;;;10.58;82.81
41706;BME280;27385;51.096;17.190;2023-05-19T05:45:27;101324.40;;;10.60;83.03
41706;BME280;27385;51.096;17.190;2023-05-19T05:47:58;101321.16;;;10.63;83.13
41706;BME280;27385;51.096;17.190;2023-05-19T05:50:30;101326.29;;;10.68;83.09
41706;BME280;27385;51.096;17.190;2023-05-19T05:53:01;101320.59;;;10.68;82.84
41706;BME280;27385;51.096;17.190;2023-05-19T05:55:34;101320.58;;;10.71;82.86
41706;BME280;27385;51.096;17.190;2023-05-19T05:58:05;101318.31;;;10.76;82.89
41706;BME280;27385;51.096;17.190;2023-05-19T06:00:39;101317.14;;;10.80;82.66
41706;BME280;27385;51.096;17.190;2023-05-19T06:03:11;101322.66;;;10.84;82.81
41706;BME280;27385;51.096;17.190;2023-05-19T06:05:42;101322.32;;;10.84;82.78
41706;BME280;27385;51.096;17.190;2023-05-19T06:08:13;101324.56;;;10.86;82.88
41706;BME280;27385;51.096;17.190;2023-05-19T06:10:45;101325.52;;;10.88;82.88
41706;BME280;27385;51.096;17.190;2023-05-19T06:13:16;101328.58;;;10.92;82.73
41706;BME280;27385;51.096;17.190;2023-05-19T06:15:51;101332.58;;;10.96;82.70
41706;BME280;27385;51.096;17.190;2023-05-19T06:18:22;101336.84;;;10.99;82.66
41706;BME280;27385;51.096;17.190;2023-05-19T06:20:53;101338.58;;;11.02;82.64
41706;BME280;27385;51.096;17.190;2023-05-19T06:23:24;101339.13;;;11.04;82.49
41706;BME280;27385;51.096;17.190;2023-05-19T06:25:57;101343.77;;;11.06;82.46
41706;BME280;27385;51.096;17.190;2023-05-19T06:28:28;101345.16;;;11.07;82.68
41706;BME280;27385;51.096;17.190;2023-05-19T06:31:00;101340.98;;;11.08;82.51
41706;BME280;27385;51.096;17.190;2023-05-19T06:33:31;101341.36;;;11.08;82.51
41706;BME280;27385;51.096;17.190;2023-05-19T06:36:01;101341.09;;;11.09;82.55
41706;BME280;27385;51.096;17.190;2023-05-19T06:38:32;101344.91;;;11.11;82.32
41706;BME280;27385;51.096;17.190;2023-05-19T06:41:03;101349.98;;;11.13;82.37
41706;BME280;27385;51.096;17.190;2023-05-19T06:43:34;101351.27;;;11.13;82.25
41706;BME280;27385;51.096;17.190;2023-05-19T06:46:05;101352.45;;;11.13;82.14
41706;BME280;27385;51.096;17.190;2023-05-19T06:48:36;101353.56;;;11.13;82.08
41706;BME280;27385;51.096;17.190;2023-05-19T06:51:06;101352.27;;;11.16;82.05
41706;BME280;27385;51.096;17.190;2023-05-19T06:53:38;101353.25;;;11.17;82.11
41706;BME280;27385;51.096;17.190;2023-05-19T06:56:09;101352.41;;;11.18;82.14
41706;BME280;27385;51.096;17.190;2023-05-19T06:58:40;101350.75;;;11.20;82.01
41706;BME280;27385;51.096;17.190;2023-05-19T07:01:12;101353.52;;;11.21;82.11
41706;BME280;27385;51.096;17.190;2023-05-19T07:03:43;101354.73;;;11.22;82.05
41706;BME280;27385;51.096;17.190;2023-05-19T07:06:17;101354.98;;;11.24;82.05
41706;BME280;27385;51.096;17.190;2023-05-19T07:08:48;101356.27;;;11.28;81.99
41706;BME280;27385;51.096;17.190;2023-05-19T07:11:19;101353.99;;;11.31;81.95
41706;BME280;27385;51.096;17.190;2023-05-19T07:13:50;101353.10;;;11.36;82.12
41706;BME280;27385;51.096;17.190;2023-05-19T07:16:21;101355.33;;;11.38;81.99
41706;BME280;27385;51.096;17.190;2023-05-19T07:18:52;101351.83;;;11.40;81.81
41706;BME280;27385;51.096;17.190;2023-05-19T07:21:23;101355.66;;;11.42;81.83
41706;BME280;27385;51.096;17.190;2023-05-19T07:23:53;101354.27;;;11.43;81.69
41706;BME280;27385;51.096;17.190;2023-05-19T07:26:24;101353.94;;;11.45;81.72
41706;BME280;27385;51.096;17.190;2023-05-19T07:28:56;101356.73;;;11.50;81.65
41706;BME280;27385;51.096;17.190;2023-05-19T07:31:27;101357.02;;;11.54;81.90
41706;BME280;27385;51.096;17.190;2023-05-19T07:33:59;101360.89;;;11.57;81.63
41706;BME280;27385;51.096;17.190;2023-05-19T07:36:29;101361.73;;;11.60;81.44
41706;BME280;27385;51.096;17.190;2023-05-19T07:39:00;101355.29;;;11.62;81.29
41706;BME280;27385;51.096;17.190;2023-05-19T07:41:31;101356.64;;;11.64;81.32
41706;BME280;27385;51.096;17.190;2023-05-19T07:44:05;101357.75;;;11.67;81.44
41706;BME280;27385;51.096;17.190;2023-05-19T07:46:36;101358.34;;;11.70;81.21
41706;BME280;27385;51.096;17.190;2023-05-19T07:49:07;101360.36;;;11.73;80.95
41706;BME280;27385;51.096;17.190;2023-05-19T07:51:38;101359.10;;;11.77;80.83
41706;BME280;27385;51.096;17.190;2023-05-19T07:54:10;101362.16;;;11.78;80.62
41706;BME280;27385;51.096;17.190;2023-05-19T07:56:40;101361.98;;;11.79;80.24
41706;BME280;27385;51.096;17.190;2023-05-19T07:59:11;101362.70;;;11.79;80.07
41706;BME280;27385;51.096;17.190;2023-05-19T08:01:42;101361.30;;;11.80;80.11
41706;BME280;27385;51.096;17.190;2023-05-19T08:04:15;101359.23;;;11.82;80.25
41706;BME280;27385;51.096;17.190;2023-05-19T08:06:46;101358.55;;;11.85;80.24
41706;BME280;27385;51.096;17.190;2023-05-19T08:09:17;101361.33;;;11.87;80.02
41706;BME280;27385;51.096;17.190;2023-05-19T08:11:47;101363.33;;;11.91;79.93
41706;BME280;27385;51.096;17.190;2023-05-19T08:14:18;101361.16;;;11.93;79.79
41706;BME280;27385;51.096;17.190;2023-05-19T08:16:51;101356.99;;;11.95;79.76
41706;BME280;27385;51.096;17.190;2023-05-19T08:19:21;101351.47;;;11.97;79.65
41706;BME280;27385;51.096;17.190;2023-05-19T08:21:52;101354.43;;;11.98;79.52
41706;BME280;27385;51.096;17.190;2023-05-19T08:24:24;101356.17;;;11.98;79.70
41706;BME280;27385;51.096;17.190;2023-05-19T08:26:55;101353.88;;;11.99;79.50
41706;BME280;27385;51.096;17.190;2023-05-19T08:29:26;101349.61;;;12.00;79.53
41706;BME280;27385;51.096;17.190;2023-05-19T08:31:57;101350.92;;;11.99;79.31
41706;BME280;27385;51.096;17.190;2023-05-19T08:34:31;101347.25;;;12.01;79.39
41706;BME280;27385;51.096;17.190;2023-05-19T08:37:02;101349.37;;;12.05;79.48
41706;BME280;27385;51.096;17.190;2023-05-19T08:39:34;101347.15;;;12.11;79.45
41706;BME280;27385;51.096;17.190;2023-05-19T08:42:05;101349.88;;;12.16;79.39
41706;BME280;27385;51.096;17.190;2023-05-19T08:44:39;101348.51;;;12.21;79.03
41706;BME280;27385;51.096;17.190;2023-05-19T08:47:11;101352.06;;;12.24;78.95
41706;BME280;27385;51.096;17.190;2023-05-19T08:49:51;101350.58;;;12.23;78.61
41706;BME280;27385;51.096;17.190;2023-05-19T08:52:30;101351.47;;;12.24;78.58
41706;BME280;27385;51.096;17.190;2023-05-19T08:55:06;101351.58;;;12.28;78.71
41706;BME280;27385;51.096;17.190;2023-05-19T08:57:41;101352.11;;;12.34;78.49
41706;BME280;27385;51.096;17.190;2023-05-19T09:00:14;101343.94;;;12.40;78.67
41706;BME280;27385;51.096;17.190;2023-05-19T09:02:46;101347.48;;;12.46;78.72
41706;BME280;27385;51.096;17.190;2023-05-19T09:05:18;101345.46;;;12.49;78.48
41706;BME280;27385;51.096;17.190;2023-05-19T09:07:49;101343.60;;;12.51;78.21
41706;BME280;27385;51.096;17.190;2023-05-19T09:10:20;101345.48;;;12.54;78.28
41706;BME280;27385;51.096;17.190;2023-05-19T09:12:51;101343.58;;;12.57;78.17
41706;BME280;27385;51.096;17.190;2023-05-19T09:15:26;101348.62;;;12.59;78.33
41706;BME280;27385;51.096;17.190;2023-05-19T09:18:06;101346.63;;;12.61;78.05
41706;BME280;27385;51.096;17.190;2023-05-19T09:20:42;101349.27;;;12.60;77.89
41706;BME280;27385;51.096;17.190;2023-05-19T09:23:15;101346.46;;;12.60;77.54
41706;BME280;27385;51.096;17.190;2023-05-19T09:25:51;101347.98;;;12.61;77.43
41706;BME280;27385;51.096;17.190;2023-05-19T09:28:26;101344.39;;;12.61;77.47
41706;BME280;27385;51.096;17.190;2023-05-19T09:31:02;101342.80;;;12.64;77.49
41706;BME280;27385;51.096;17.190;2023-05-19T09:33:35;101343.60;;;12.67;77.51
41706;BME280;27385;51.096;17.190;2023-05-19T09:36:07;101338.94;;;12.73;77.54
41706;BME280;27385;51.096;17.190;2023-05-19T09:38:39;101334.44;;;12.81;77.63
41706;BME280;27385;51.096;17.190;2023-05-19T09:41:13;101335.02;;;12.87;77.26
41706;BME280;27385;51.096;17.190;2023-05-19T09:43:48;101330.67;;;12.91;76.92
41706;BME280;27385;51.096;17.190;2023-05-19T09:46:24;101328.11;;;12.97;76.70
41706;BME280;27385;51.096;17.190;2023-05-19T09:48:58;101321.35;;;12.99;76.48
41706;BME280;27385;51.096;17.190;2023-05-19T09:51:29;101328.77;;;13.08;76.86
41706;BME280;27385;51.096;17.190;2023-05-19T09:54:00;101326.30;;;13.14;76.34
41706;BME280;27385;51.096;17.190;2023-05-19T09:56:38;101320.92;;;13.21;76.56
41706;BME280;27385;51.096;17.190;2023-05-19T09:59:09;101316.36;;;13.28;76.18
41706;BME280;27385;51.096;17.190;2023-05-19T10:01:41;101315.83;;;13.32;76.01
41706;BME280;27385;51.096;17.190;2023-05-19T10:04:16;101315.75;;;13.34;75.98
41706;BME280;27385;51.096;17.190;2023-05-19T10:06:48;101316.16;;;13.29;75.35
41706;BME280;27385;51.096;17.190;2023-05-19T10:09:25;101311.41;;;13.22;75.45
41706;BME280;27385;51.096;17.190;2023-05-19T10:11:57;101312.85;;;13.21;75.75
41706;BME280;27385;51.096;17.190;2023-05-19T10:14:29;101309.45;;;13.20;75.86
41706;BME280;27385;51.096;17.190;2023-05-19T10:16:59;101306.07;;;13.20;75.70
41706;BME280;27385;51.096;17.190;2023-05-19T10:19:30;101309.33;;;13.23;75.42
41706;BME280;27385;51.096;17.190;2023-05-19T10:22:01;101308.98;;;13.23;75.46
41706;BME280;27385;51.096;17.190;2023-05-19T10:24:31;101305.20;;;13.27;75.54
41706;BME280;27385;51.096;17.190;2023-05-19T10:27:06;101304.73;;;13.30;75.31
41706;BME280;27385;51.096;17.190;2023-05-19T10:29:41;101302.87;;;13.35;75.64
41706;BME280;27385;51.096;17.190;2023-05-19T10:32:17;101303.34;;;13.42;75.18
41706;BME280;27385;51.096;17.190;2023-05-19T10:35:15;101298.92;;;13.41;74.83
41706;BME280;27385;51.096;17.190;2023-05-19T10:37:54;101296.13;;;13.39;75.02
41706;BME280;27385;51.096;17.190;2023-05-19T10:40:32;101296.88;;;13.38;74.80
41706;BME280;27385;51.096;17.190;2023-05-19T10:43:10;101294.23;;;13.38;74.89
41706;BME280;27385;51.096;17.190;2023-05-19T10:45:50;101293.95;;;13.38;74.66
41706;BME280;27385;51.096;17.190;2023-05-19T10:48:21;101294.36;;;13.34;74.77
41706;BME280;27385;51.096;17.190;2023-05-19T10:50:55;101298.55;;;13.33;74.82
41706;BME280;27385;51.096;17.190;2023-05-19T10:53:33;101301.95;;;13.35;74.63
41706;BME280;27385;51.096;17.190;2023-05-19T10:56:06;101305.27;;;13.35;75.07
41706;BME280;27385;51.096;17.190;2023-05-19T10:58:48;101306.56;;;13.38;74.96
41706;BME280;27385;51.096;17.190;2023-05-19T11:01:21;101307.77;;;13.44;75.12
41706;BME280;27385;51.096;17.190;2023-05-19T11:03:54;101308.77;;;13.46;74.68
41706;BME280;27385;51.096;17.190;2023-05-19T11:06:30;101310.17;;;13.42;74.50
41706;BME280;27385;51.096;17.190;2023-05-19T11:09:12;101311.80;;;13.38;74.63
41706;BME280;27385;51.096;17.190;2023-05-19T11:11:48;101308.05;;;13.36;74.74
41706;BME280;27385;51.096;17.190;2023-05-19T11:14:20;101306.41;;;13.38;74.83
41706;BME280;27385;51.096;17.190;2023-05-19T11:16:52;101304.70;;;13.39;74.69
41706;BME280;27385;51.096;17.190;2023-05-19T11:19:28;101303.11;;;13.39;74.59
41706;BME280;27385;51.096;17.190;2023-05-19T11:22:10;101304.28;;;13.36;74.40
41706;BME280;27385;51.096;17.190;2023-05-19T11:24:44;101303.59;;;13.35;74.46
41706;BME280;27385;51.096;17.190;2023-05-19T11:27:20;101304.73;;;13.37;74.62
41706;BME280;27385;51.096;17.190;2023-05-19T11:29:52;101300.40;;;13.30;74.70
41706;BME280;27385;51.096;17.190;2023-05-19T11:32:28;101300.80;;;13.24;74.67
41706;BME280;27385;51.096;17.190;2023-05-19T11:34:59;101301.87;;;13.18;74.73
41706;BME280;27385;51.096;17.190;2023-05-19T11:37:33;101300.88;;;13.15;75.01
41706;BME280;27385;51.096;17.190;2023-05-19T11:40:07;101298.16;;;13.14;75.08
41706;BME280;27385;51.096;17.190;2023-05-19T11:42:38;101304.63;;;13.16;75.22
41706;BME280;27385;51.096;17.190;2023-05-19T11:45:22;101302.19;;;13.16;75.05
41706;BME280;27385;51.096;17.190;2023-05-19T11:47:57;101306.11;;;13.16;75.08
41706;BME280;27385;51.096;17.190;2023-05-19T11:50:28;101308.07;;;13.19;75.28
41706;BME280;27385;51.096;17.190;2023-05-19T11:53:01;101308.23;;;13.20;75.18
41706;BME280;27385;51.096;17.190;2023-05-19T11:55:32;101303.98;;;13.21;75.24
41706;BME280;27385;51.096;17.190;2023-05-19T11:58:04;101302.48;;;13.24;75.37
41706;BME280;27385;51.096;17.190;2023-05-19T12:00:37;101302.60;;;13.28;75.15
41706;BME280;27385;51.096;17.190;2023-05-19T12:03:08;101299.45;;;13.33;74.96
41706;BME280;27385;51.096;17.190;2023-05-19T12:05:43;101301.02;;;13.36;75.01
41706;BME280;27385;51.096;17.190;2023-05-19T12:08:16;101305.39;;;13.38;75.07
41706;BME280;27385;51.096;17.190;2023-05-19T12:10:50;101304.42;;;13.38;75.09
41706;BME280;27385;51.096;17.190;2023-05-19T12:13:22;101304.55;;;13.37;75.20
41706;BME280;27385;51.096;17.190;2023-05-19T12:15:56;101304.74;;;13.36;75.15
41706;BME280;27385;51.096;17.190;2023-05-19T12:18:35;101302.35;;;13.34;75.16
41706;BME280;27385;51.096;17.190;2023-05-19T12:21:06;101303.89;;;13.31;75.18
41706;BME280;27385;51.096;17.190;2023-05-19T12:23:37;101301.99;;;13.25;75.19
41706;BME280;27385;51.096;17.190;2023-05-19T12:26:10;101302.39;;;13.20;75.26
41706;BME280;27385;51.096;17.190;2023-05-19T12:28:41;101299.49;;;13.18;75.60
41706;BME280;27385;51.096;17.190;2023-05-19T12:31:14;101298.15;;;13.20;75.85
41706;BME280;27385;51.096;17.190;2023-05-19T12:33:45;101299.48;;;13.22;75.64
41706;BME280;27385;51.096;17.190;2023-05-19T12:36:24;101301.80;;;13.21;75.73
41706;BME280;27385;51.096;17.190;2023-05-19T12:38:56;101304.70;;;13.21;75.74
41706;BME280;27385;51.096;17.190;2023-05-19T12:41:27;101307.23;;;13.18;75.66
41706;BME280;27385;51.096;17.190;2023-05-19T12:44:01;101301.59;;;13.15;75.74
41706;BME280;27385;51.096;17.190;2023-05-19T12:46:42;101301.85;;;13.15;75.88
41706;BME280;27385;51.096;17.190;2023-05-19T12:49:13;101303.82;;;13.12;75.98
41706;BME280;27385;51.096;17.190;2023-05-19T12:51:51;101301.94;;;13.13;75.97
41706;BME280;27385;51.096;17.190;2023-05-19T12:54:23;101300.18;;;13.19;76.07
41706;BME280;27385;51.096;17.190;2023-05-19T12:56:54;101299.48;;;13.24;75.98
41706;BME280;27385;51.096;17.190;2023-05-19T12:59:27;101296.80;;;13.28;75.91
41706;BME280;27385;51.096;17.190;2023-05-19T13:01:59;101295.50;;;13.32;75.86
41706;BME280;27385;51.096;17.190;2023-05-19T13:04:32;101298.91;;;13.38;75.99
41706;BME280;27385;51.096;17.190;2023-05-19T13:07:03;101294.65;;;13.41;75.81
41706;BME280;27385;51.096;17.190;2023-05-19T13:09:34;101297.77;;;13.45;75.97
41706;BME280;27385;51.096;17.190;2023-05-19T13:12:08;101292.45;;;13.47;75.71
41706;BME280;27385;51.096;17.190;2023-05-19T13:14:38;101293.52;;;13.47;75.81